createdAt,value
2019-02-26T00:00:20.174Z,1032.39
2019-02-26T00:01:19.149Z,1032.39
2019-02-26T00:02:19.797Z,1032.36
2019-02-26T00:03:19.894Z,1032.30
2019-02-26T00:04:20.848Z,1032.30
2019-02-26T00:05:21.402Z,1032.31
2019-02-26T00:06:20.215Z,1032.29
2019-02-26T00:07:22.928Z,1032.30
2019-02-26T00:08:21.513Z,1032.24
2019-02-26T00:09:22.341Z,1032.24
2019-02-26T00:10:22.287Z,1032.26
2019-02-26T00:11:18.774Z,1032.25
2019-02-26T00:12:21.929Z,1032.30
2019-02-26T00:13:18.906Z,1032.29
2019-02-26T00:14:20.357Z,1032.35
2019-02-26T00:15:19.020Z,1032.39
2019-02-26T00:16:20.530Z,1032.37
2019-02-26T00:17:19.574Z,1032.35
2019-02-26T00:18:21.322Z,1032.33
2019-02-26T00:19:19.254Z,1032.32
2019-02-26T00:20:19.316Z,1032.29
2019-02-26T00:21:20.415Z,1032.30
2019-02-26T00:22:19.447Z,1032.33
2019-02-26T00:23:21.498Z,1032.27
2019-02-26T00:24:19.554Z,1032.30
2019-02-26T00:25:20.420Z,1032.27
2019-02-26T00:26:20.638Z,1032.24
2019-02-26T00:27:19.750Z,1032.22
2019-02-26T00:28:21.996Z,1032.19
2019-02-26T00:29:21.163Z,1032.16
2019-02-26T00:30:19.919Z,1032.13
2019-02-26T00:31:21.437Z,1032.12
2019-02-26T00:32:20.050Z,1032.05
2019-02-26T00:33:22.374Z,1032.04
2019-02-26T00:34:20.159Z,1032.06
2019-02-26T00:35:21.202Z,1032.09
2019-02-26T00:36:20.279Z,1032.07
2019-02-26T00:37:22.094Z,1032.04
2019-02-26T00:38:20.409Z,1032.02
2019-02-26T00:39:21.037Z,1032.03
2019-02-26T00:40:20.521Z,1032.03
2019-02-26T00:41:22.601Z,1032.01
2019-02-26T00:42:23.641Z,1031.99
2019-02-26T00:43:23.275Z,1032.00
2019-02-26T00:44:21.210Z,1031.98
2019-02-26T00:45:24.660Z,1031.96
2019-02-26T00:46:24.083Z,1031.96
2019-02-26T00:47:20.947Z,1031.99
2019-02-26T00:48:21.003Z,1031.96
2019-02-26T00:49:21.603Z,1031.96
2019-02-26T00:50:21.115Z,1031.98
2019-02-26T00:51:22.649Z,1031.98
2019-02-26T00:52:21.508Z,1032.04
2019-02-26T00:53:23.463Z,1032.03
2019-02-26T00:54:24.316Z,1032.05
2019-02-26T00:55:25.215Z,1032.05
2019-02-26T00:56:22.803Z,1032.02
2019-02-26T00:57:21.544Z,1032.04
2019-02-26T00:58:21.604Z,1032.00
2019-02-26T00:59:21.656Z,1032.04
2019-02-26T01:00:21.716Z,1032.06
2019-02-26T01:01:23.412Z,1032.08
2019-02-26T01:02:21.844Z,1032.04
2019-02-26T01:03:21.904Z,1032.09
2019-02-26T01:04:21.957Z,1032.13
2019-02-26T01:05:22.020Z,1032.16
2019-02-26T01:06:22.619Z,1032.17
2019-02-26T01:07:23.853Z,1032.17
2019-02-26T01:08:22.196Z,1032.21
2019-02-26T01:09:23.132Z,1032.21
2019-02-26T01:10:23.609Z,1032.27
2019-02-26T01:11:23.838Z,1032.28
2019-02-26T01:12:22.448Z,1032.30
2019-02-26T01:13:25.022Z,1032.32
2019-02-26T01:14:24.279Z,1032.33
2019-02-26T01:15:22.620Z,1032.31
2019-02-26T01:16:22.677Z,1032.36
2019-02-26T01:17:22.745Z,1032.38
2019-02-26T01:18:24.458Z,1032.38
2019-02-26T01:19:22.858Z,1032.43
2019-02-26T01:20:25.500Z,1032.44
2019-02-26T01:21:26.254Z,1032.42
2019-02-26T01:22:23.041Z,1032.41
2019-02-26T01:23:24.376Z,1032.42
2019-02-26T01:24:24.187Z,1032.41
2019-02-26T01:25:23.217Z,1032.40
2019-02-26T01:26:23.280Z,1032.41
2019-02-26T01:27:23.390Z,1032.38
2019-02-26T01:28:24.711Z,1032.38
2019-02-26T01:29:25.201Z,1032.32
2019-02-26T01:30:26.240Z,1032.32
2019-02-26T01:31:24.695Z,1032.30
2019-02-26T01:32:24.924Z,1032.30
2019-02-26T01:33:24.653Z,1032.30
2019-02-26T01:34:23.754Z,1032.24
2019-02-26T01:35:23.814Z,1032.23
2019-02-26T01:36:25.397Z,1032.21
2019-02-26T01:37:25.314Z,1032.23
2019-02-26T01:38:24.046Z,1032.22
2019-02-26T01:39:24.059Z,1032.19
2019-02-26T01:40:25.836Z,1032.21
2019-02-26T01:41:25.093Z,1032.23
2019-02-26T01:42:24.867Z,1032.26
2019-02-26T01:43:24.290Z,1032.27
2019-02-26T01:44:28.093Z,1032.27
2019-02-26T01:45:27.133Z,1032.24
2019-02-26T01:46:24.470Z,1032.23
2019-02-26T01:47:26.196Z,1032.24
2019-02-26T01:48:24.598Z,1032.25
2019-02-26T01:49:26.660Z,1032.25
2019-02-26T01:50:24.711Z,1032.26
2019-02-26T01:51:26.207Z,1032.22
2019-02-26T01:52:24.834Z,1032.25
2019-02-26T01:53:24.895Z,1032.22
2019-02-26T01:54:24.950Z,1032.18
2019-02-26T01:55:25.316Z,1032.17
2019-02-26T01:56:25.067Z,1032.19
2019-02-26T01:57:27.187Z,1032.13
2019-02-26T01:58:25.186Z,1032.12
2019-02-26T01:59:25.247Z,1032.13
2019-02-26T02:00:26.019Z,1032.12
2019-02-26T02:01:26.208Z,1032.09
2019-02-26T02:02:27.729Z,1032.11
2019-02-26T02:03:27.800Z,1032.12
2019-02-26T02:04:25.546Z,1032.12
2019-02-26T02:05:28.143Z,1032.11
2019-02-26T02:06:25.673Z,1032.10
2019-02-26T02:07:26.455Z,1032.05
2019-02-26T02:08:25.792Z,1032.04
2019-02-26T02:09:25.843Z,1031.98
2019-02-26T02:10:25.907Z,1031.96
2019-02-26T02:11:28.365Z,1031.93
2019-02-26T02:12:29.489Z,1031.87
2019-02-26T02:13:28.404Z,1031.86
2019-02-26T02:14:26.140Z,1031.82
2019-02-26T02:15:26.202Z,1031.87
2019-02-26T02:16:28.941Z,1031.80
2019-02-26T02:17:26.424Z,1031.78
2019-02-26T02:18:28.138Z,1031.83
2019-02-26T02:19:27.593Z,1031.81
2019-02-26T02:20:26.500Z,1031.76
2019-02-26T02:21:28.355Z,1031.77
2019-02-26T02:22:26.625Z,1031.76
2019-02-26T02:23:28.093Z,1031.77
2019-02-26T02:24:26.736Z,1031.76
2019-02-26T02:25:28.971Z,1031.72
2019-02-26T02:26:26.857Z,1031.75
2019-02-26T02:27:28.109Z,1031.72
2019-02-26T02:28:28.586Z,1031.71
2019-02-26T02:29:28.585Z,1031.69
2019-02-26T02:30:31.150Z,1031.67
2019-02-26T02:31:31.006Z,1031.61
2019-02-26T02:32:29.647Z,1031.61
2019-02-26T02:33:29.609Z,1031.60
2019-02-26T02:34:29.479Z,1031.57
2019-02-26T02:35:27.389Z,1031.57
2019-02-26T02:36:27.450Z,1031.65
2019-02-26T02:37:29.510Z,1031.63
2019-02-26T02:38:27.578Z,1031.64
2019-02-26T02:39:29.244Z,1031.62
2019-02-26T02:40:27.692Z,1031.61
2019-02-26T02:41:27.744Z,1031.58
2019-02-26T02:42:27.808Z,1031.60
2019-02-26T02:43:27.876Z,1031.53
2019-02-26T02:44:27.934Z,1031.52
2019-02-26T02:45:27.985Z,1031.49
2019-02-26T02:46:28.045Z,1031.54
2019-02-26T02:47:30.739Z,1031.50
2019-02-26T02:48:28.167Z,1031.47
2019-02-26T02:49:29.624Z,1031.47
2019-02-26T02:50:28.283Z,1031.40
2019-02-26T02:51:31.183Z,1031.41
2019-02-26T02:52:30.416Z,1031.35
2019-02-26T02:53:30.195Z,1031.38
2019-02-26T02:54:28.526Z,1031.35
2019-02-26T02:55:28.587Z,1031.33
2019-02-26T02:56:30.766Z,1031.33
2019-02-26T02:57:30.035Z,1031.30
2019-02-26T02:58:28.758Z,1031.35
2019-02-26T02:59:31.027Z,1031.38
2019-02-26T03:00:31.270Z,1031.41
2019-02-26T03:01:28.948Z,1031.42
2019-02-26T03:02:28.995Z,1031.41
2019-02-26T03:03:29.059Z,1031.47
2019-02-26T03:04:31.293Z,1031.41
2019-02-26T03:05:31.495Z,1031.45
2019-02-26T03:06:30.560Z,1031.39
2019-02-26T03:07:29.492Z,1031.34
2019-02-26T03:08:29.351Z,1031.30
2019-02-26T03:09:31.117Z,1031.31
2019-02-26T03:10:31.678Z,1031.31
2019-02-26T03:11:29.530Z,1031.33
2019-02-26T03:12:29.595Z,1031.31
2019-02-26T03:13:29.647Z,1031.33
2019-02-26T03:14:32.908Z,1031.33
2019-02-26T03:15:32.928Z,1031.31
2019-02-26T03:16:29.828Z,1031.30
2019-02-26T03:17:29.887Z,1031.36
2019-02-26T03:18:29.947Z,1031.36
2019-02-26T03:19:32.683Z,1031.38
2019-02-26T03:20:31.827Z,1031.37
2019-02-26T03:21:30.625Z,1031.43
2019-02-26T03:22:30.194Z,1031.41
2019-02-26T03:23:31.304Z,1031.44
2019-02-26T03:24:31.494Z,1031.45
2019-02-26T03:25:30.367Z,1031.47
2019-02-26T03:26:30.421Z,1031.49
2019-02-26T03:27:31.184Z,1031.49
2019-02-26T03:28:34.907Z,1031.46
2019-02-26T03:29:30.603Z,1031.46
2019-02-26T03:30:34.016Z,1031.47
2019-02-26T03:31:35.283Z,1031.42
2019-02-26T03:32:30.777Z,1031.45
2019-02-26T03:33:30.837Z,1031.38
2019-02-26T03:34:30.920Z,1031.37
2019-02-26T03:35:30.976Z,1031.38
2019-02-26T03:36:31.625Z,1031.34
2019-02-26T03:37:32.062Z,1031.35
2019-02-26T03:38:31.136Z,1031.33
2019-02-26T03:39:31.208Z,1031.30
2019-02-26T03:40:32.947Z,1031.31
2019-02-26T03:41:31.365Z,1031.30
2019-02-26T03:42:33.241Z,1031.29
2019-02-26T03:43:34.010Z,1031.23
2019-02-26T03:44:31.499Z,1031.23
2019-02-26T03:45:31.553Z,1031.20
2019-02-26T03:46:31.604Z,1031.18
2019-02-26T03:47:31.667Z,1031.18
2019-02-26T03:48:31.724Z,1031.17
2019-02-26T03:49:31.792Z,1031.14
2019-02-26T03:50:31.849Z,1031.16
2019-02-26T03:51:31.904Z,1031.14
2019-02-26T03:52:32.253Z,1031.15
2019-02-26T03:53:34.243Z,1031.16
2019-02-26T03:54:32.101Z,1031.15
2019-02-26T03:55:34.203Z,1031.15
2019-02-26T03:56:32.198Z,1031.11
2019-02-26T03:57:32.257Z,1031.12
2019-02-26T03:58:32.317Z,1031.12
2019-02-26T03:59:32.381Z,1031.14
2019-02-26T04:00:34.598Z,1031.13
2019-02-26T04:01:32.502Z,1031.14
2019-02-26T04:02:32.553Z,1031.12
2019-02-26T04:03:34.734Z,1031.13
2019-02-26T04:04:33.716Z,1031.13
2019-02-26T04:05:32.741Z,1031.09
2019-02-26T04:06:34.157Z,1031.10
2019-02-26T04:07:33.343Z,1031.08
2019-02-26T04:08:32.905Z,1031.08
2019-02-26T04:09:32.975Z,1031.14
2019-02-26T04:10:33.029Z,1031.09
2019-02-26T04:11:33.082Z,1031.13
2019-02-26T04:12:36.072Z,1031.09
2019-02-26T04:13:33.206Z,1031.08
2019-02-26T04:14:33.310Z,1031.09
2019-02-26T04:15:35.881Z,1031.07
2019-02-26T04:16:35.368Z,1031.07
2019-02-26T04:17:36.670Z,1031.10
2019-02-26T04:18:34.785Z,1031.11
2019-02-26T04:19:33.562Z,1031.15
2019-02-26T04:20:33.622Z,1031.12
2019-02-26T04:21:33.674Z,1031.16
2019-02-26T04:22:33.736Z,1031.21
2019-02-26T04:23:36.137Z,1031.21
2019-02-26T04:24:36.061Z,1031.26
2019-02-26T04:25:36.332Z,1031.26
2019-02-26T04:26:35.077Z,1031.26
2019-02-26T04:27:36.175Z,1031.24
2019-02-26T04:28:36.405Z,1031.27
2019-02-26T04:29:36.086Z,1031.19
2019-02-26T04:30:38.684Z,1031.26
2019-02-26T04:31:34.265Z,1031.26
2019-02-26T04:32:37.782Z,1031.29
2019-02-26T04:33:35.999Z,1031.30
2019-02-26T04:34:34.447Z,1031.28
2019-02-26T04:35:34.508Z,1031.29
2019-02-26T04:36:36.926Z,1031.32
2019-02-26T04:37:35.238Z,1031.31
2019-02-26T04:38:34.675Z,1031.33
2019-02-26T04:39:36.744Z,1031.30
2019-02-26T04:40:36.325Z,1031.27
2019-02-26T04:41:34.851Z,1031.26
2019-02-26T04:42:36.004Z,1031.28
2019-02-26T04:43:36.303Z,1031.31
2019-02-26T04:44:35.035Z,1031.33
2019-02-26T04:45:35.096Z,1031.32
2019-02-26T04:46:36.950Z,1031.39
2019-02-26T04:47:35.207Z,1031.43
2019-02-26T04:48:35.266Z,1031.44
2019-02-26T04:49:38.327Z,1031.43
2019-02-26T04:50:38.471Z,1031.44
2019-02-26T04:51:36.316Z,1031.41
2019-02-26T04:52:37.785Z,1031.48
2019-02-26T04:53:36.455Z,1031.39
2019-02-26T04:54:36.936Z,1031.48
2019-02-26T04:55:38.228Z,1031.48
2019-02-26T04:56:37.018Z,1031.46
2019-02-26T04:57:39.402Z,1031.45
2019-02-26T04:58:37.226Z,1031.41
2019-02-26T04:59:38.061Z,1031.46
2019-02-26T05:00:38.523Z,1031.45
2019-02-26T05:01:36.027Z,1031.42
2019-02-26T05:02:36.089Z,1031.45
2019-02-26T05:03:36.153Z,1031.43
2019-02-26T05:04:37.528Z,1031.37
2019-02-26T05:05:37.116Z,1031.41
2019-02-26T05:06:36.325Z,1031.43
2019-02-26T05:07:38.502Z,1031.46
2019-02-26T05:08:37.664Z,1031.47
2019-02-26T05:09:36.520Z,1031.43
2019-02-26T05:10:36.571Z,1031.41
2019-02-26T05:11:40.392Z,1031.40
2019-02-26T05:12:37.943Z,1031.44
2019-02-26T05:13:36.733Z,1031.39
2019-02-26T05:14:36.801Z,1031.46
2019-02-26T05:15:36.861Z,1031.48
2019-02-26T05:16:37.870Z,1031.52
2019-02-26T05:17:36.970Z,1031.49
2019-02-26T05:18:37.028Z,1031.49
2019-02-26T05:19:39.608Z,1031.51
2019-02-26T05:20:39.300Z,1031.47
2019-02-26T05:21:37.951Z,1031.48
2019-02-26T05:22:37.267Z,1031.46
2019-02-26T05:23:37.321Z,1031.46
2019-02-26T05:24:38.635Z,1031.47
2019-02-26T05:25:39.729Z,1031.47
2019-02-26T05:26:37.501Z,1031.43
2019-02-26T05:27:39.996Z,1031.43
2019-02-26T05:28:40.705Z,1031.45
2019-02-26T05:29:40.394Z,1031.46
2019-02-26T05:30:40.191Z,1031.48
2019-02-26T05:31:40.051Z,1031.52
2019-02-26T05:32:37.849Z,1031.56
2019-02-26T05:33:37.910Z,1031.59
2019-02-26T05:34:39.915Z,1031.56
2019-02-26T05:35:40.699Z,1031.56
2019-02-26T05:36:40.291Z,1031.52
2019-02-26T05:37:40.868Z,1031.52
2019-02-26T05:38:38.202Z,1031.52
2019-02-26T05:39:40.350Z,1031.51
2019-02-26T05:40:40.397Z,1031.54
2019-02-26T05:41:40.357Z,1031.52
2019-02-26T05:42:38.443Z,1031.58
2019-02-26T05:43:38.494Z,1031.56
2019-02-26T05:44:38.555Z,1031.54
2019-02-26T05:45:38.646Z,1031.53
2019-02-26T05:46:38.679Z,1031.58
2019-02-26T05:47:38.746Z,1031.56
2019-02-26T05:48:40.080Z,1031.55
2019-02-26T05:49:41.310Z,1031.55
2019-02-26T05:50:41.310Z,1031.57
2019-02-26T05:51:38.980Z,1031.51
2019-02-26T05:52:39.103Z,1031.55
2019-02-26T05:53:39.082Z,1031.57
2019-02-26T05:54:39.139Z,1031.59
2019-02-26T05:55:41.625Z,1031.63
2019-02-26T05:56:41.261Z,1031.58
2019-02-26T05:57:39.316Z,1031.63
2019-02-26T05:58:41.429Z,1031.60
2019-02-26T05:59:41.829Z,1031.62
2019-02-26T06:00:39.492Z,1031.65
2019-02-26T06:01:39.559Z,1031.66
2019-02-26T06:02:42.138Z,1031.70
2019-02-26T06:03:41.055Z,1031.68
2019-02-26T06:04:41.043Z,1031.72
2019-02-26T06:05:43.451Z,1031.72
2019-02-26T06:06:39.902Z,1031.72
2019-02-26T06:07:39.912Z,1031.73
2019-02-26T06:08:41.274Z,1031.78
2019-02-26T06:09:40.020Z,1031.74
2019-02-26T06:10:40.079Z,1031.73
2019-02-26T06:11:42.843Z,1031.78
2019-02-26T06:12:41.490Z,1031.83
2019-02-26T06:13:42.684Z,1031.81
2019-02-26T06:14:40.312Z,1031.81
2019-02-26T06:15:40.367Z,1031.79
2019-02-26T06:16:40.437Z,1031.77
2019-02-26T06:17:42.878Z,1031.80
2019-02-26T06:18:41.951Z,1031.81
2019-02-26T06:19:42.328Z,1031.81
2019-02-26T06:20:40.665Z,1031.78
2019-02-26T06:21:43.988Z,1031.80
2019-02-26T06:22:40.788Z,1031.78
2019-02-26T06:23:43.106Z,1031.77
2019-02-26T06:24:40.896Z,1031.75
2019-02-26T06:25:40.960Z,1031.75
2019-02-26T06:26:43.028Z,1031.74
2019-02-26T06:27:41.084Z,1031.74
2019-02-26T06:28:43.480Z,1031.74
2019-02-26T06:29:41.188Z,1031.74
2019-02-26T06:30:41.255Z,1031.72
2019-02-26T06:31:42.262Z,1031.72
2019-02-26T06:32:43.977Z,1031.75
2019-02-26T06:33:43.221Z,1031.76
2019-02-26T06:34:41.495Z,1031.75
2019-02-26T06:35:42.848Z,1031.73
2019-02-26T06:36:42.094Z,1031.77
2019-02-26T06:37:41.669Z,1031.76
2019-02-26T06:38:41.721Z,1031.73
2019-02-26T06:39:41.777Z,1031.73
2019-02-26T06:40:45.852Z,1031.71
2019-02-26T06:41:44.190Z,1031.72
2019-02-26T06:42:41.961Z,1031.73
2019-02-26T06:43:45.004Z,1031.74
2019-02-26T06:44:43.729Z,1031.72
2019-02-26T06:45:43.595Z,1031.73
2019-02-26T06:46:42.189Z,1031.73
2019-02-26T06:47:42.261Z,1031.73
2019-02-26T06:48:42.302Z,1031.77
2019-02-26T06:49:43.273Z,1031.75
2019-02-26T06:50:43.511Z,1031.72
2019-02-26T06:51:42.993Z,1031.73
2019-02-26T06:52:44.723Z,1031.72
2019-02-26T06:53:45.063Z,1031.75
2019-02-26T06:54:47.750Z,1031.76
2019-02-26T06:55:42.710Z,1031.72
2019-02-26T06:56:44.302Z,1031.74
2019-02-26T06:57:46.371Z,1031.72
2019-02-26T06:58:44.948Z,1031.78
2019-02-26T06:59:42.949Z,1031.76
2019-02-26T07:00:43.701Z,1031.81
2019-02-26T07:01:43.062Z,1031.79
2019-02-26T07:02:46.221Z,1031.84
2019-02-26T07:03:43.182Z,1031.85
2019-02-26T07:04:43.239Z,1031.81
2019-02-26T07:05:46.449Z,1031.83
2019-02-26T07:06:43.358Z,1031.87
2019-02-26T07:07:43.423Z,1031.90
2019-02-26T07:08:44.574Z,1031.87
2019-02-26T07:09:43.980Z,1031.91
2019-02-26T07:10:43.590Z,1031.93
2019-02-26T07:11:43.650Z,1031.94
2019-02-26T07:12:45.508Z,1031.93
2019-02-26T07:13:44.769Z,1031.95
2019-02-26T07:14:43.823Z,1031.93
2019-02-26T07:15:45.463Z,1031.98
2019-02-26T07:16:43.947Z,1032.00
2019-02-26T07:17:45.861Z,1031.97
2019-02-26T07:18:44.075Z,1031.97
2019-02-26T07:19:44.123Z,1031.97
2019-02-26T07:20:49.243Z,1031.93
2019-02-26T07:21:45.492Z,1031.96
2019-02-26T07:22:46.815Z,1031.94
2019-02-26T07:23:44.383Z,1031.98
2019-02-26T07:24:46.286Z,1031.96
2019-02-26T07:25:44.475Z,1031.93
2019-02-26T07:26:46.353Z,1031.97
2019-02-26T07:27:44.598Z,1031.92
2019-02-26T07:28:46.473Z,1031.98
2019-02-26T07:29:45.739Z,1031.96
2019-02-26T07:30:46.795Z,1031.96
2019-02-26T07:31:44.832Z,1031.95
2019-02-26T07:32:46.196Z,1031.94
2019-02-26T07:33:44.952Z,1031.93
2019-02-26T07:34:47.276Z,1031.89
2019-02-26T07:35:45.068Z,1031.93
2019-02-26T07:36:45.701Z,1031.88
2019-02-26T07:37:45.192Z,1031.89
2019-02-26T07:38:48.519Z,1031.87
2019-02-26T07:39:47.207Z,1031.88
2019-02-26T07:40:45.364Z,1031.90
2019-02-26T07:41:47.078Z,1031.87
2019-02-26T07:42:46.614Z,1031.91
2019-02-26T07:43:46.885Z,1031.88
2019-02-26T07:44:45.604Z,1031.86
2019-02-26T07:45:45.848Z,1031.89
2019-02-26T07:46:45.725Z,1031.89
2019-02-26T07:47:45.780Z,1032.03
2019-02-26T07:48:46.147Z,1032.22
2019-02-26T07:49:45.901Z,1032.43
2019-02-26T07:50:48.266Z,1032.46
2019-02-26T07:51:46.033Z,1032.51
2019-02-26T07:52:47.381Z,1032.52
2019-02-26T07:53:50.559Z,1032.57
2019-02-26T07:54:47.602Z,1032.61
2019-02-26T07:55:46.274Z,1032.54
2019-02-26T07:56:46.385Z,1032.51
2019-02-26T07:57:48.924Z,1032.51
2019-02-26T07:58:46.457Z,1032.53
2019-02-26T07:59:47.574Z,1032.66
2019-02-26T08:00:49.587Z,1032.75
2019-02-26T08:01:47.145Z,1032.91
2019-02-26T08:02:46.725Z,1033.01
2019-02-26T08:03:48.706Z,1032.96
2019-02-26T08:04:46.846Z,1032.96
2019-02-26T08:05:46.918Z,1032.95
2019-02-26T08:06:46.981Z,1032.95
2019-02-26T08:07:48.676Z,1032.95
2019-02-26T08:08:48.835Z,1032.96
2019-02-26T08:09:47.173Z,1033.01
2019-02-26T08:10:48.851Z,1033.11
2019-02-26T08:11:48.994Z,1033.20
2019-02-26T08:12:47.393Z,1033.20
2019-02-26T08:13:49.319Z,1033.22
2019-02-26T08:14:48.211Z,1033.21
2019-02-26T08:15:47.571Z,1033.35
2019-02-26T08:16:51.410Z,1033.45
2019-02-26T08:17:50.188Z,1033.44
2019-02-26T08:18:49.395Z,1033.33
2019-02-26T08:19:49.372Z,1033.27
2019-02-26T08:20:47.910Z,1033.33
2019-02-26T08:21:50.154Z,1033.26
2019-02-26T08:22:49.532Z,1033.13
2019-02-26T08:23:48.318Z,1033.06
2019-02-26T08:24:50.086Z,1032.96
2019-02-26T08:25:49.619Z,1032.96
2019-02-26T08:26:49.757Z,1032.91
2019-02-26T08:27:49.911Z,1032.92
2019-02-26T08:28:48.455Z,1032.89
2019-02-26T08:29:49.455Z,1032.81
2019-02-26T08:30:49.810Z,1032.83
2019-02-26T08:31:49.513Z,1032.77
2019-02-26T08:32:53.509Z,1032.78
2019-02-26T08:33:51.611Z,1032.79
2019-02-26T08:34:48.867Z,1032.73
2019-02-26T08:35:48.936Z,1032.75
2019-02-26T08:36:49.003Z,1032.75
2019-02-26T08:37:49.071Z,1032.75
2019-02-26T08:38:49.164Z,1032.72
2019-02-26T08:39:49.211Z,1032.72
2019-02-26T08:40:49.283Z,1032.73
2019-02-26T08:41:49.348Z,1032.71
2019-02-26T08:42:49.415Z,1032.72
2019-02-26T08:43:51.445Z,1032.67
2019-02-26T08:44:51.226Z,1032.70
2019-02-26T08:45:49.628Z,1032.69
2019-02-26T08:46:49.692Z,1032.71
2019-02-26T08:47:49.760Z,1032.75
2019-02-26T08:48:50.838Z,1032.67
2019-02-26T08:49:49.904Z,1032.65
2019-02-26T08:50:49.968Z,1032.68
2019-02-26T08:51:50.036Z,1032.71
2019-02-26T08:52:52.884Z,1032.68
2019-02-26T08:53:51.876Z,1032.65
2019-02-26T08:54:50.247Z,1032.64
2019-02-26T08:55:51.567Z,1032.63
2019-02-26T08:56:50.381Z,1032.58
2019-02-26T08:57:51.983Z,1032.55
2019-02-26T08:58:50.530Z,1032.56
2019-02-26T08:59:52.291Z,1032.55
2019-02-26T09:00:50.657Z,1032.53
2019-02-26T09:01:50.725Z,1032.51
2019-02-26T09:02:54.029Z,1032.53
2019-02-26T09:03:53.172Z,1032.52
2019-02-26T09:04:50.945Z,1032.50
2019-02-26T09:05:51.609Z,1032.49
2019-02-26T09:06:52.413Z,1032.49
2019-02-26T09:07:51.145Z,1032.52
2019-02-26T09:08:51.335Z,1032.50
2019-02-26T09:09:54.321Z,1032.47
2019-02-26T09:10:51.349Z,1032.50
2019-02-26T09:11:52.961Z,1032.51
2019-02-26T09:12:52.067Z,1032.50
2019-02-26T09:13:51.566Z,1032.53
2019-02-26T09:14:51.633Z,1032.52
2019-02-26T09:15:51.695Z,1032.55
2019-02-26T09:16:52.549Z,1032.52
2019-02-26T09:17:51.834Z,1032.55
2019-02-26T09:18:51.911Z,1032.49
2019-02-26T09:19:53.246Z,1032.50
2019-02-26T09:20:52.041Z,1032.50
2019-02-26T09:21:52.891Z,1032.52
2019-02-26T09:22:54.439Z,1032.50
2019-02-26T09:23:54.873Z,1032.47
2019-02-26T09:24:54.373Z,1032.42
2019-02-26T09:25:54.885Z,1032.42
2019-02-26T09:26:54.707Z,1032.42
2019-02-26T09:27:52.526Z,1032.39
2019-02-26T09:28:54.763Z,1032.39
2019-02-26T09:29:52.670Z,1032.38
2019-02-26T09:30:53.777Z,1032.34
2019-02-26T09:31:52.803Z,1032.33
2019-02-26T09:32:52.874Z,1032.36
2019-02-26T09:33:52.946Z,1032.31
2019-02-26T09:34:54.457Z,1032.39
2019-02-26T09:35:54.519Z,1032.34
2019-02-26T09:36:55.529Z,1032.31
2019-02-26T09:37:55.520Z,1032.35
2019-02-26T09:38:53.330Z,1032.40
2019-02-26T09:39:54.366Z,1032.37
2019-02-26T09:40:54.676Z,1032.40
2019-02-26T09:41:53.491Z,1032.41
2019-02-26T09:42:55.158Z,1032.43
2019-02-26T09:43:53.635Z,1032.43
2019-02-26T09:44:55.421Z,1032.45
2019-02-26T09:45:53.772Z,1032.40
2019-02-26T09:46:55.267Z,1032.40
2019-02-26T09:47:55.607Z,1032.40
2019-02-26T09:48:53.979Z,1032.40
2019-02-26T09:49:56.057Z,1032.37
2019-02-26T09:50:54.107Z,1032.36
2019-02-26T09:51:55.094Z,1032.38
2019-02-26T09:52:58.136Z,1032.33
2019-02-26T09:53:56.451Z,1032.33
2019-02-26T09:54:55.241Z,1032.28
2019-02-26T09:55:54.457Z,1032.28
2019-02-26T09:56:54.522Z,1032.27
2019-02-26T09:57:54.587Z,1032.28
2019-02-26T09:58:54.663Z,1032.30
2019-02-26T09:59:57.329Z,1032.28
2019-02-26T10:00:54.800Z,1032.28
2019-02-26T10:01:56.518Z,1032.27
2019-02-26T10:02:54.932Z,1032.28
2019-02-26T10:03:56.085Z,1032.26
2019-02-26T10:04:55.076Z,1032.24
2019-02-26T10:05:56.056Z,1032.22
2019-02-26T10:06:55.204Z,1032.25
2019-02-26T10:07:59.285Z,1032.21
2019-02-26T10:08:56.049Z,1032.21
2019-02-26T10:09:55.408Z,1032.26
2019-02-26T10:10:57.681Z,1032.23
2019-02-26T10:11:55.548Z,1032.22
2019-02-26T10:12:57.438Z,1032.23
2019-02-26T10:13:55.693Z,1032.24
2019-02-26T10:14:59.486Z,1032.19
2019-02-26T10:15:58.253Z,1032.26
2019-02-26T10:16:56.997Z,1032.27
2019-02-26T10:17:58.266Z,1032.22
2019-02-26T10:18:56.717Z,1032.21
2019-02-26T10:19:56.954Z,1032.19
2019-02-26T10:20:56.161Z,1032.21
2019-02-26T10:21:57.396Z,1032.21
2019-02-26T10:22:58.635Z,1032.19
2019-02-26T10:23:56.881Z,1032.19
2019-02-26T10:24:56.433Z,1032.22
2019-02-26T10:25:57.933Z,1032.16
2019-02-26T10:26:58.736Z,1032.15
2019-02-26T10:27:56.647Z,1032.16
2019-02-26T10:29:03.346Z,1032.14
2019-02-26T10:29:56.781Z,1032.14
2019-02-26T10:30:57.436Z,1032.08
2019-02-26T10:31:56.910Z,1032.10
2019-02-26T10:33:01.961Z,1032.04
2019-02-26T10:33:57.053Z,1032.04
2019-02-26T10:34:57.122Z,1032.05
2019-02-26T10:35:57.181Z,1032.02
2019-02-26T10:36:57.250Z,1032.04
2019-02-26T10:37:59.713Z,1032.02
2019-02-26T10:38:58.512Z,1032.06
2019-02-26T10:39:57.455Z,1032.05
2019-02-26T10:40:59.734Z,1032.05
2019-02-26T10:41:57.590Z,1032.01
2019-02-26T10:42:57.658Z,1032.00
2019-02-26T10:43:57.746Z,1031.98
2019-02-26T10:44:57.802Z,1032.00
2019-02-26T10:45:57.872Z,1031.97
2019-02-26T10:46:58.918Z,1031.97
2019-02-26T10:48:00.951Z,1031.98
2019-02-26T10:48:58.093Z,1031.92
2019-02-26T10:49:58.136Z,1031.93
2019-02-26T10:50:58.202Z,1031.97
2019-02-26T10:51:58.652Z,1031.92
2019-02-26T10:53:06.841Z,1031.89
2019-02-26T10:53:59.981Z,1031.90
2019-02-26T10:54:58.481Z,1031.97
2019-02-26T10:55:58.542Z,1031.95
2019-02-26T10:57:00.384Z,1031.91
2019-02-26T10:58:03.594Z,1031.94
2019-02-26T10:59:02.922Z,1031.96
2019-02-26T10:59:59.581Z,1031.98
2019-02-26T11:01:01.536Z,1031.99
2019-02-26T11:02:00.761Z,1031.99
2019-02-26T11:02:59.023Z,1031.99
2019-02-26T11:03:59.127Z,1031.96
2019-02-26T11:04:59.158Z,1031.96
2019-02-26T11:05:59.224Z,1031.99
2019-02-26T11:06:59.860Z,1031.99
2019-02-26T11:08:02.230Z,1031.98
2019-02-26T11:09:01.748Z,1031.97
2019-02-26T11:09:59.495Z,1031.97
2019-02-26T11:10:59.556Z,1031.94
2019-02-26T11:12:00.829Z,1031.95
2019-02-26T11:12:59.869Z,1031.95
2019-02-26T11:13:59.764Z,1031.94
2019-02-26T11:15:01.701Z,1031.91
2019-02-26T11:16:02.916Z,1031.93
2019-02-26T11:16:59.960Z,1031.92
2019-02-26T11:18:00.028Z,1031.91
2019-02-26T11:19:01.986Z,1031.91
2019-02-26T11:20:01.147Z,1031.86
2019-02-26T11:21:00.233Z,1031.89
2019-02-26T11:22:03.887Z,1031.87
2019-02-26T11:23:00.364Z,1031.83
2019-02-26T11:24:01.413Z,1031.85
2019-02-26T11:25:00.982Z,1031.87
2019-02-26T11:26:00.574Z,1031.82
2019-02-26T11:27:00.636Z,1031.84
2019-02-26T11:28:02.499Z,1031.83
2019-02-26T11:29:00.776Z,1031.81
2019-02-26T11:30:02.087Z,1031.84
2019-02-26T11:31:00.904Z,1031.83
2019-02-26T11:32:01.710Z,1031.82
2019-02-26T11:33:03.097Z,1031.77
2019-02-26T11:34:04.070Z,1031.72
2019-02-26T11:35:02.336Z,1031.73
2019-02-26T11:36:02.860Z,1031.70
2019-02-26T11:37:03.333Z,1031.67
2019-02-26T11:38:01.377Z,1031.64
2019-02-26T11:39:04.111Z,1031.63
2019-02-26T11:40:02.874Z,1031.61
2019-02-26T11:41:01.582Z,1031.57
2019-02-26T11:42:01.652Z,1031.57
2019-02-26T11:43:11.152Z,1031.58
2019-02-26T11:44:01.790Z,1031.63
2019-02-26T11:45:01.858Z,1031.62
2019-02-26T11:46:03.718Z,1031.61
2019-02-26T11:47:01.986Z,1031.55
2019-02-26T11:48:03.802Z,1031.56
2019-02-26T11:49:02.137Z,1031.54
2019-02-26T11:50:04.675Z,1031.52
2019-02-26T11:51:02.258Z,1031.50
2019-02-26T11:52:04.424Z,1031.49
2019-02-26T11:53:02.393Z,1031.45
2019-02-26T11:54:04.985Z,1031.47
2019-02-26T11:55:05.793Z,1031.46
2019-02-26T11:56:02.594Z,1031.44
2019-02-26T11:57:04.539Z,1031.42
2019-02-26T11:58:05.597Z,1031.42
2019-02-26T11:59:06.404Z,1031.42
2019-02-26T12:00:04.499Z,1031.42
2019-02-26T12:01:02.948Z,1031.42
2019-02-26T12:02:04.419Z,1031.43
2019-02-26T12:03:03.075Z,1031.38
2019-02-26T12:04:04.111Z,1031.36
2019-02-26T12:05:05.448Z,1031.35
2019-02-26T12:06:03.278Z,1031.36